createdAt,value
2022-11-30T00:00:09.207Z,6.1
2022-11-30T00:02:09.173Z,6.2
2022-11-30T00:06:08.764Z,6.1
2022-11-30T00:08:08.518Z,6.2
2022-11-30T00:10:08.358Z,6.1
2022-11-30T00:12:11.495Z,6.2
2022-11-30T00:14:11.307Z,6.2
2022-11-30T00:16:11.154Z,6.1
2022-11-30T00:20:10.800Z,6.1
2022-11-30T00:24:10.508Z,5.9
2022-11-30T00:26:13.826Z,6
2022-11-30T00:30:13.530Z,6
2022-11-30T00:31:15.325Z,5.9
2022-11-30T00:33:15.029Z,5.9
2022-11-30T00:35:14.864Z,5.9
2022-11-30T00:37:14.700Z,5.9
2022-11-30T00:39:18.035Z,5.9
2022-11-30T00:41:17.886Z,5.8
2022-11-30T00:43:17.712Z,5.9
2022-11-30T00:45:17.570Z,5.9
2022-11-30T00:47:17.428Z,5.9
2022-11-30T00:49:17.252Z,5.9
2022-11-30T00:51:17.083Z,5.9
2022-11-30T00:53:20.437Z,5.9
2022-11-30T00:55:20.254Z,5.9
2022-11-30T00:57:21.099Z,5.9
2022-11-30T00:59:19.827Z,5.9
2022-11-30T01:01:19.710Z,5.8
2022-11-30T01:03:19.400Z,5.9
2022-11-30T01:05:19.164Z,5.9
2022-11-30T01:07:22.523Z,5.8
2022-11-30T01:09:22.309Z,5.9
2022-11-30T01:11:22.055Z,5.9
2022-11-30T01:13:21.921Z,5.9
2022-11-30T01:15:21.743Z,5.9
2022-11-30T01:17:21.585Z,5.9
2022-11-30T01:19:21.439Z,5.9
2022-11-30T01:21:24.667Z,5.9
2022-11-30T01:23:24.393Z,5.8
2022-11-30T01:28:25.760Z,5.9
2022-11-30T01:30:25.613Z,5.9
2022-11-30T01:32:25.420Z,5.8
2022-11-30T01:34:28.793Z,5.9
2022-11-30T01:36:28.625Z,5.8
2022-11-30T01:38:28.458Z,5.9
2022-11-30T01:40:28.302Z,5.8
2022-11-30T01:42:28.144Z,5.7
2022-11-30T01:44:27.991Z,5.7
2022-11-30T01:46:27.932Z,5.6
2022-11-30T01:48:31.074Z,5.5
2022-11-30T01:50:30.929Z,5.5
2022-11-30T01:52:30.767Z,5.5
2022-11-30T01:54:30.607Z,5.5
2022-11-30T01:56:30.450Z,5.5
2022-11-30T01:58:30.273Z,5.3
2022-11-30T02:00:30.074Z,5.3
2022-11-30T02:04:33.250Z,5.2
2022-11-30T02:06:33.037Z,5.2
2022-11-30T02:08:32.979Z,5.1
2022-11-30T02:10:32.635Z,5
2022-11-30T02:12:32.491Z,5
2022-11-30T02:14:32.384Z,4.9
2022-11-30T02:16:35.724Z,5.1
2022-11-30T02:18:35.561Z,5.1
2022-11-30T02:20:35.499Z,5.1
2022-11-30T02:22:57.634Z,4.9
2022-11-30T02:24:57.454Z,5
2022-11-30T02:26:57.344Z,5
2022-11-30T02:29:00.687Z,5.1
2022-11-30T02:31:00.615Z,5.1
2022-11-30T02:33:00.386Z,5.1
2022-11-30T02:37:00.082Z,5.1
2022-11-30T02:38:59.922Z,5.1
2022-11-30T02:40:59.887Z,5
2022-11-30T02:43:03.132Z,5
2022-11-30T02:45:02.984Z,5.1
2022-11-30T02:47:02.849Z,5
2022-11-30T02:49:04.280Z,4.9
2022-11-30T02:51:04.102Z,5
2022-11-30T02:55:03.794Z,4.8
2022-11-30T02:57:07.115Z,4.8
2022-11-30T02:59:06.987Z,4.8
2022-11-30T03:07:06.432Z,4.5
2022-11-30T03:09:06.298Z,4.6
2022-11-30T03:11:09.657Z,4.4
2022-11-30T03:13:09.503Z,4.4
2022-11-30T03:15:09.389Z,4.3
2022-11-30T03:16:11.120Z,4.3
2022-11-30T03:18:10.910Z,4.2
2022-11-30T03:20:10.762Z,4.2
2022-11-30T03:22:10.629Z,4.1
2022-11-30T03:24:14.014Z,4.1
2022-11-30T03:26:13.880Z,4
2022-11-30T03:28:13.739Z,4
2022-11-30T03:32:13.484Z,4
2022-11-30T03:36:13.263Z,3.8
2022-11-30T03:43:11.244Z,3.8
2022-11-30T03:44:16.250Z,3.8
2022-11-30T03:46:16.175Z,3.8
2022-11-30T03:48:15.956Z,3.6
2022-11-30T03:50:15.822Z,3.6
2022-11-30T03:52:19.199Z,3.5
2022-11-30T03:54:19.088Z,3.5
2022-11-30T03:56:18.949Z,3.4
2022-11-30T03:58:18.800Z,3.2
2022-11-30T04:00:18.739Z,3.2
2022-11-30T04:02:18.621Z,3.3
2022-11-30T04:04:18.492Z,3.2
2022-11-30T04:06:21.852Z,3.1
2022-11-30T04:08:21.752Z,3
2022-11-30T04:10:21.617Z,3.1
2022-11-30T04:11:23.309Z,3
2022-11-30T04:13:23.181Z,3
2022-11-30T04:15:23.048Z,3
2022-11-30T04:17:22.949Z,3.1
2022-11-30T04:21:26.158Z,2.9
2022-11-30T04:23:26.010Z,2.9
2022-11-30T04:25:26.104Z,2.9
2022-11-30T04:27:25.790Z,2.9
2022-11-30T04:29:25.595Z,3
2022-11-30T04:31:25.541Z,3
2022-11-30T04:33:28.858Z,2.8
2022-11-30T04:35:28.727Z,2.8
2022-11-30T04:39:28.486Z,2.9
2022-11-30T04:41:28.353Z,2.9
2022-11-30T04:43:28.243Z,3
2022-11-30T04:45:31.275Z,3.1
2022-11-30T04:49:31.403Z,3
2022-11-30T04:51:31.235Z,2.9
2022-11-30T04:53:31.141Z,2.9
2022-11-30T04:55:31.013Z,2.9
2022-11-30T04:57:30.889Z,3
2022-11-30T04:59:30.846Z,2.9
2022-11-30T05:03:34.039Z,3
2022-11-30T05:05:33.912Z,2.8
2022-11-30T05:06:35.595Z,2.8
2022-11-30T05:08:35.504Z,2.9
2022-11-30T05:10:35.358Z,2.9
2022-11-30T05:12:35.268Z,2.9
2022-11-30T05:14:38.640Z,2.9
2022-11-30T05:16:38.555Z,2.6
2022-11-30T05:18:38.398Z,2.5
2022-11-30T05:20:38.334Z,2.7
2022-11-30T05:22:38.150Z,2.5
2022-11-30T05:24:38.049Z,2.7
2022-11-30T05:26:37.922Z,2.7
2022-11-30T05:28:41.291Z,2.6
2022-11-30T05:30:41.174Z,2.8
2022-11-30T05:32:41.077Z,2.5
2022-11-30T05:34:50.022Z,2.5
2022-11-30T05:36:40.824Z,2.5
2022-11-30T05:38:40.699Z,2.6
2022-11-30T05:40:40.615Z,2.7
2022-11-30T05:44:44.026Z,2.8
2022-11-30T05:46:43.810Z,2.5
2022-11-30T05:48:43.612Z,2.6
2022-11-30T05:50:43.502Z,2.5
2022-11-30T05:52:43.384Z,2.5
2022-11-30T06:03:02.346Z,2.3
2022-11-30T06:05:02.058Z,2.4
2022-11-30T06:07:01.936Z,2.4
2022-11-30T06:09:05.341Z,2.4
2022-11-30T06:11:05.207Z,2.3
2022-11-30T06:13:05.103Z,2.4
2022-11-30T06:15:05.011Z,2.4
2022-11-30T06:17:04.882Z,2.3
2022-11-30T06:19:04.773Z,2.2
2022-11-30T06:21:04.643Z,2.2
2022-11-30T06:23:08.042Z,2.2
2022-11-30T06:25:07.920Z,2.1
2022-11-30T06:27:07.817Z,2.2
2022-11-30T06:29:07.732Z,2.1
2022-11-30T06:31:07.566Z,2.2
2022-11-30T06:33:07.468Z,2.2
2022-11-30T06:35:07.340Z,2.2
2022-11-30T06:37:10.731Z,2.5
2022-11-30T06:39:10.628Z,2.6
2022-11-30T06:41:10.531Z,2.7
2022-11-30T06:43:10.416Z,2.7
2022-11-30T06:45:10.286Z,2.8
2022-11-30T06:47:10.168Z,2.8
2022-11-30T06:49:10.091Z,3
2022-11-30T06:51:13.471Z,3
2022-11-30T06:53:13.333Z,3
2022-11-30T06:55:13.211Z,3.1
2022-11-30T06:56:14.969Z,3.2
2022-11-30T06:58:14.793Z,3.2
2022-11-30T07:04:18.020Z,3.4
2022-11-30T07:06:17.830Z,3.4
2022-11-30T07:08:17.724Z,3.5
2022-11-30T07:10:20.269Z,3.4
2022-11-30T07:12:17.464Z,3.5
2022-11-30T07:14:17.376Z,3.5
2022-11-30T07:16:17.257Z,3.5
2022-11-30T07:18:20.622Z,3.5
2022-11-30T07:20:20.688Z,3.6
2022-11-30T07:22:20.374Z,3.5
2022-11-30T07:24:20.232Z,3.5
2022-11-30T07:26:20.106Z,3.5
2022-11-30T07:28:19.993Z,3.5
2022-11-30T07:30:19.893Z,3.5
2022-11-30T07:32:23.208Z,3.6
2022-11-30T07:34:23.115Z,3.6
2022-11-30T07:36:23.007Z,3.6
2022-11-30T07:38:22.860Z,3.6
2022-11-30T07:40:22.742Z,3.6
2022-11-30T07:42:22.650Z,3.6
2022-11-30T07:44:22.465Z,3.6
2022-11-30T07:46:25.872Z,3.6
2022-11-30T07:48:25.724Z,3.7
2022-11-30T07:50:25.694Z,3.7
2022-11-30T07:51:27.291Z,3.7
2022-11-30T07:53:27.138Z,3.7
2022-11-30T07:55:27.000Z,3.7
2022-11-30T07:57:26.852Z,3.7
2022-11-30T07:59:30.257Z,3.8
2022-11-30T08:01:30.305Z,3.8
2022-11-30T08:03:33.686Z,3.8
2022-11-30T08:05:29.883Z,3.8
2022-11-30T08:07:29.784Z,3.8
2022-11-30T08:09:29.596Z,3.9
2022-11-30T08:11:29.487Z,3.9
2022-11-30T08:13:32.880Z,3.9
2022-11-30T08:15:33.745Z,3.9
2022-11-30T08:17:32.607Z,4
2022-11-30T08:19:32.497Z,4
2022-11-30T08:21:32.367Z,4
2022-11-30T08:23:32.263Z,4.1
2022-11-30T08:25:32.119Z,4.2
2022-11-30T08:27:35.479Z,4.2
2022-11-30T08:29:35.363Z,4.3
2022-11-30T08:31:35.352Z,4.3
2022-11-30T08:33:35.135Z,4.3
2022-11-30T08:37:36.469Z,4.4
2022-11-30T08:39:36.276Z,4.5
2022-11-30T08:41:39.632Z,4.5
2022-11-30T08:43:39.505Z,4.5
2022-11-30T08:45:39.377Z,4.5
2022-11-30T08:46:52.087Z,4.6
2022-11-30T08:48:40.953Z,4.7
2022-11-30T08:50:40.795Z,4.8
2022-11-30T08:52:40.635Z,4.8
2022-11-30T08:54:44.016Z,4.9
2022-11-30T08:56:43.900Z,5.1
2022-11-30T08:58:43.792Z,5.1
2022-11-30T09:00:43.630Z,5.3
2022-11-30T09:02:43.545Z,5.3
2022-11-30T09:04:43.323Z,5.5
2022-11-30T09:06:43.197Z,5.6
2022-11-30T09:08:46.584Z,5.6
2022-11-30T09:10:46.412Z,5.6
2022-11-30T09:12:46.303Z,5.5
2022-11-30T09:14:49.641Z,5.3
2022-11-30T09:16:45.966Z,5.3
2022-11-30T09:18:45.825Z,5.4
2022-11-30T09:22:49.040Z,5.4
2022-11-30T09:24:49.421Z,5.4
2022-11-30T09:26:48.739Z,5.4
2022-11-30T09:28:48.594Z,5.5
2022-11-30T09:30:48.368Z,5.4
2022-11-30T09:32:48.114Z,5.5
2022-11-30T09:34:50.100Z,5.6
2022-11-30T09:38:51.014Z,5.7
2022-11-30T09:40:50.866Z,5.8
2022-11-30T09:43:06.750Z,5.9
2022-11-30T09:47:06.339Z,6
2022-11-30T09:49:09.677Z,6.2
2022-11-30T09:51:09.550Z,6.2
2022-11-30T09:53:09.356Z,6.3
2022-11-30T09:57:08.951Z,6.4
2022-11-30T09:59:08.691Z,6.6
2022-11-30T10:01:08.609Z,7.2
2022-11-30T10:03:12.022Z,7.4
2022-11-30T10:05:11.707Z,7.2
2022-11-30T10:07:11.569Z,7
2022-11-30T10:09:11.398Z,7.7
2022-11-30T10:11:11.223Z,9.3
2022-11-30T10:13:10.985Z,10.7
2022-11-30T10:15:10.824Z,11.7
2022-11-30T10:17:14.108Z,12.3
2022-11-30T10:19:13.759Z,12.5
2022-11-30T10:21:13.724Z,12.8
2022-11-30T10:23:13.394Z,13.1
2022-11-30T10:27:12.812Z,12.8
2022-11-30T10:29:12.536Z,13.3
2022-11-30T10:31:15.688Z,13.9
2022-11-30T10:33:15.294Z,14.1
2022-11-30T10:35:14.979Z,14.1
2022-11-30T10:36:16.487Z,14.4
2022-11-30T10:38:16.157Z,14.3
2022-11-30T10:40:15.842Z,14.4
2022-11-30T10:42:15.443Z,14.7
2022-11-30T10:44:18.538Z,14.3
2022-11-30T10:46:18.167Z,13.9
2022-11-30T10:48:17.743Z,13.6
2022-11-30T10:50:17.351Z,13.7
2022-11-30T10:52:16.958Z,13.4
2022-11-30T10:54:16.569Z,13.9
2022-11-30T10:56:16.133Z,14.3
2022-11-30T10:58:19.144Z,13.4
2022-11-30T11:00:18.715Z,13.4
2022-11-30T11:02:19.248Z,13.6
2022-11-30T11:04:18.807Z,13.2
2022-11-30T11:08:18.012Z,12.9
2022-11-30T11:10:17.532Z,11.4
2022-11-30T11:12:20.534Z,11
2022-11-30T11:16:19.727Z,9.5
2022-11-30T11:20:18.884Z,8
2022-11-30T11:22:18.523Z,8.2
2022-11-30T11:24:18.135Z,8.1
2022-11-30T11:26:21.145Z,8.4
2022-11-30T11:28:20.746Z,9.2
2022-11-30T11:31:21.975Z,8.3
2022-11-30T11:33:21.572Z,8.4
2022-11-30T11:35:21.208Z,8.7
2022-11-30T11:37:20.877Z,8.2
2022-11-30T11:39:23.905Z,8
2022-11-30T11:43:23.209Z,8.2
2022-11-30T11:47:22.538Z,9.2
2022-11-30T11:49:22.201Z,8.5
2022-11-30T11:51:21.875Z,8.1
2022-11-30T11:53:25.282Z,8
2022-11-30T11:55:24.584Z,7.9
2022-11-30T11:57:24.283Z,7.7
2022-11-30T11:59:28.029Z,7.6
2022-11-30T12:03:23.335Z,7.6
2022-11-30T12:05:23.010Z,7.6
2022-11-30T12:07:26.147Z,7.5
2022-11-30T12:09:28.568Z,7.5
2022-11-30T12:11:25.489Z,7.4
2022-11-30T12:17:24.590Z,7.4
2022-11-30T12:21:27.406Z,7.4
2022-11-30T12:23:27.086Z,7.4
2022-11-30T12:26:28.313Z,7.4
2022-11-30T12:28:28.039Z,7.4
2022-11-30T12:30:27.742Z,7.3
2022-11-30T12:32:27.471Z,7.3
2022-11-30T12:34:30.570Z,7.3
2022-11-30T12:36:30.265Z,7.3
2022-11-30T12:38:30.023Z,7.3
2022-11-30T12:40:29.695Z,7.3
2022-11-30T12:42:29.465Z,7.3
2022-11-30T12:44:29.257Z,7.2
2022-11-30T12:46:28.951Z,7.2
2022-11-30T12:48:32.137Z,7.2
2022-11-30T12:52:31.569Z,7.2
2022-11-30T12:54:31.233Z,7.2
2022-11-30T12:56:30.977Z,7.1
2022-11-30T12:58:30.658Z,7.1
2022-11-30T13:00:30.473Z,7.1
2022-11-30T13:02:33.582Z,7
2022-11-30T13:04:33.373Z,7
2022-11-30T13:06:33.081Z,7
2022-11-30T13:08:32.828Z,7.1
2022-11-30T13:10:32.533Z,7.1
2022-11-30T13:12:32.289Z,7
2022-11-30T13:14:31.981Z,7.1
2022-11-30T13:16:35.392Z,7
2022-11-30T13:18:35.018Z,7
2022-11-30T13:23:08.647Z,7
2022-11-30T13:24:56.581Z,7.1
2022-11-30T13:26:56.410Z,7.1
2022-11-30T13:28:59.605Z,7
2022-11-30T13:30:59.352Z,7.1
2022-11-30T13:32:59.369Z,7.1
2022-11-30T13:34:58.797Z,7.1
2022-11-30T13:36:58.584Z,7
2022-11-30T13:38:58.253Z,7.1
2022-11-30T13:40:58.042Z,7
2022-11-30T13:45:01.058Z,6.9
2022-11-30T13:47:00.890Z,7
2022-11-30T13:49:00.660Z,6.9
2022-11-30T13:51:00.479Z,6.9
2022-11-30T13:53:00.509Z,6.9
2022-11-30T13:54:59.921Z,6.9
2022-11-30T14:07:01.809Z,6.9
2022-11-30T14:13:04.483Z,6.9
2022-11-30T14:15:04.227Z,6.9
2022-11-30T14:16:05.925Z,6.9
2022-11-30T14:18:05.585Z,6.9
2022-11-30T14:20:05.372Z,6.8
2022-11-30T14:22:06.600Z,6.8
2022-11-30T14:24:09.746Z,6.8
2022-11-30T14:26:11.192Z,6.8
2022-11-30T14:28:09.222Z,6.8
2022-11-30T14:30:08.993Z,6.8
2022-11-30T14:32:08.651Z,6.8
2022-11-30T14:34:08.448Z,6.8
2022-11-30T14:36:08.171Z,6.8
2022-11-30T14:38:11.391Z,6.8
2022-11-30T14:42:10.848Z,6.7
2022-11-30T14:44:10.575Z,6.7
2022-11-30T14:46:15.664Z,6.7
2022-11-30T14:48:10.205Z,6.7
2022-11-30T14:50:09.983Z,6.7
2022-11-30T14:52:13.209Z,6.7
2022-11-30T14:54:13.063Z,6.7
2022-11-30T14:56:12.772Z,6.7
2022-11-30T14:58:12.578Z,6.7
2022-11-30T15:00:12.320Z,6.7
2022-11-30T15:02:12.137Z,6.6
2022-11-30T15:04:11.854Z,6.7
2022-11-30T15:06:14.985Z,6.6
2022-11-30T15:08:14.798Z,6.6
2022-11-30T15:10:14.660Z,6.6
2022-11-30T15:11:16.301Z,6.6
2022-11-30T15:15:15.926Z,6.6
2022-11-30T15:17:15.682Z,6.6
2022-11-30T15:19:18.862Z,6.5
2022-11-30T15:21:18.683Z,6.5
2022-11-30T15:23:18.517Z,6.5
2022-11-30T15:25:18.337Z,6.5
2022-11-30T15:27:18.199Z,6.5
2022-11-30T15:29:18.013Z,6.5
2022-11-30T15:31:17.882Z,6.4
2022-11-30T15:33:21.039Z,6.4
2022-11-30T15:35:20.874Z,6.4
2022-11-30T15:37:20.724Z,6.4
2022-11-30T15:41:20.338Z,6.4
2022-11-30T15:43:20.191Z,6.4
2022-11-30T15:47:23.239Z,6.3
2022-11-30T15:49:23.019Z,6.3
2022-11-30T15:51:22.791Z,6.4
2022-11-30T15:53:22.595Z,6.3
2022-11-30T15:55:22.365Z,6.4
2022-11-30T15:57:22.112Z,6.3
2022-11-30T15:59:21.839Z,6.4
2022-11-30T16:06:26.078Z,6.3
2022-11-30T16:08:25.835Z,6.3
2022-11-30T16:10:25.598Z,6.2
2022-11-30T16:12:25.403Z,6.3
2022-11-30T16:14:28.614Z,6.2
2022-11-30T16:16:28.556Z,6.2
2022-11-30T16:18:28.122Z,6.2
2022-11-30T16:20:27.936Z,6.2
2022-11-30T16:22:27.618Z,6.2
2022-11-30T16:24:27.429Z,6.1
2022-11-30T16:26:50.393Z,6.1
2022-11-30T16:28:30.494Z,6.1
2022-11-30T16:30:30.306Z,6.1
2022-11-30T16:32:30.028Z,6.1
2022-11-30T16:34:29.750Z,6.1
2022-11-30T16:36:29.496Z,6.1
2022-11-30T16:38:29.276Z,6.2
2022-11-30T16:40:32.701Z,6.2
2022-11-30T16:42:32.325Z,6.2
2022-11-30T16:44:32.147Z,6.2
2022-11-30T16:46:31.866Z,6.2
2022-11-30T16:48:31.703Z,6.2
2022-11-30T16:52:31.347Z,6.2
2022-11-30T16:54:31.132Z,6.2
2022-11-30T16:56:34.358Z,6.2
2022-11-30T17:04:55.497Z,6.2
2022-11-30T17:07:02.002Z,6.2
2022-11-30T17:08:58.460Z,6.2
2022-11-30T17:10:58.273Z,6.2
2022-11-30T17:12:57.990Z,6.2
2022-11-30T17:14:57.724Z,6.2
2022-11-30T17:16:57.756Z,6.2
2022-11-30T17:18:57.367Z,6.2
2022-11-30T17:20:57.180Z,6.2
2022-11-30T17:23:00.413Z,6.1
2022-11-30T17:25:00.154Z,6.1
2022-11-30T17:26:59.949Z,6.2
2022-11-30T17:28:59.783Z,6.2
2022-11-30T17:30:59.626Z,6.2
2022-11-30T17:32:59.346Z,6.1
2022-11-30T17:34:59.038Z,6.1
2022-11-30T17:37:02.304Z,6.1
2022-11-30T17:39:02.113Z,6.1
2022-11-30T17:41:01.854Z,6.1
2022-11-30T17:45:01.519Z,6.1
2022-11-30T17:47:01.318Z,6.1
2022-11-30T17:49:01.152Z,6.1
2022-11-30T17:51:04.439Z,6
2022-11-30T17:53:04.068Z,6
2022-11-30T17:55:03.910Z,6
2022-11-30T18:04:08.246Z,5.9
2022-11-30T18:06:08.087Z,5.8
2022-11-30T18:08:07.901Z,5.9
2022-11-30T18:10:07.739Z,5.8
2022-11-30T18:12:07.561Z,5.8
2022-11-30T18:14:07.364Z,5.8
2022-11-30T18:16:07.593Z,5.8
2022-11-30T18:18:14.505Z,5.9
2022-11-30T18:20:10.275Z,5.8
2022-11-30T18:22:11.690Z,5.9
2022-11-30T18:24:09.817Z,5.8
2022-11-30T18:26:09.652Z,5.8
2022-11-30T18:28:09.444Z,5.8
2022-11-30T18:30:10.415Z,5.8
2022-11-30T18:32:12.427Z,5.8
2022-11-30T18:36:12.070Z,5.8
2022-11-30T18:38:11.756Z,5.7
2022-11-30T18:40:11.529Z,5.7
2022-11-30T18:42:11.346Z,5.7
2022-11-30T18:48:14.131Z,5.7
2022-11-30T18:50:13.896Z,5.7
2022-11-30T18:51:15.555Z,5.7
2022-11-30T18:53:18.417Z,5.7
2022-11-30T18:55:15.216Z,5.7
2022-11-30T18:57:15.082Z,5.7
2022-11-30T18:59:18.280Z,5.7
2022-11-30T19:01:18.323Z,5.7
2022-11-30T19:03:17.864Z,5.7
2022-11-30T19:05:17.697Z,5.7
2022-11-30T19:07:17.515Z,5.7
2022-11-30T19:09:17.352Z,5.7
2022-11-30T19:11:17.204Z,5.7
2022-11-30T19:13:20.446Z,5.7
2022-11-30T19:15:20.257Z,5.7
2022-11-30T19:19:19.933Z,5.7
2022-11-30T19:21:19.761Z,5.7
2022-11-30T19:23:19.580Z,5.7
2022-11-30T19:27:24.261Z,5.6
2022-11-30T19:29:22.596Z,5.7
2022-11-30T19:31:22.391Z,5.7
2022-11-30T19:33:22.154Z,5.7
2022-11-30T19:35:21.987Z,5.7
2022-11-30T19:37:21.816Z,5.6
2022-11-30T19:41:35.569Z,5.6
2022-11-30T19:43:24.705Z,5.6
2022-11-30T19:46:26.236Z,5.6
2022-11-30T19:48:26.015Z,5.5
2022-11-30T19:50:25.867Z,5.6
2022-11-30T19:52:33.936Z,5.6
2022-11-30T19:54:28.910Z,5.6
2022-11-30T19:56:28.758Z,5.5
2022-11-30T19:58:28.550Z,5.5
2022-11-30T20:00:28.312Z,5.6
2022-11-30T20:02:28.218Z,5.6
2022-11-30T20:04:27.981Z,5.6
2022-11-30T20:06:27.794Z,5.6
2022-11-30T20:08:32.598Z,5.6
2022-11-30T20:10:32.414Z,5.6
2022-11-30T20:12:32.225Z,5.6
2022-11-30T20:14:31.978Z,5.6
2022-11-30T20:16:31.886Z,5.6
2022-11-30T20:18:31.634Z,5.6
2022-11-30T20:20:31.450Z,5.6
2022-11-30T20:22:34.687Z,5.6
2022-11-30T20:24:34.440Z,5.6
2022-11-30T20:26:34.272Z,5.6
2022-11-30T20:28:33.982Z,5.6
2022-11-30T20:30:33.764Z,5.6
2022-11-30T20:32:33.579Z,5.5
2022-11-30T20:34:35.900Z,5.6
2022-11-30T20:36:36.679Z,5.6
2022-11-30T20:38:36.360Z,5.5
2022-11-30T20:40:36.102Z,5.5
2022-11-30T20:42:58.297Z,5.6
2022-11-30T20:44:58.193Z,5.5
2022-11-30T20:46:58.069Z,5.6
2022-11-30T20:49:01.207Z,5.5
2022-11-30T20:51:28.650Z,5.5
2022-11-30T20:53:00.888Z,5.5
2022-11-30T20:55:00.708Z,5.5
2022-11-30T20:57:00.553Z,5.5
2022-11-30T20:59:00.367Z,5.5
2022-11-30T21:01:00.217Z,5.5
2022-11-30T21:03:03.533Z,5.5
2022-11-30T21:05:03.216Z,5.5
2022-11-30T21:07:03.015Z,5.5
2022-11-30T21:09:02.875Z,5.5
2022-11-30T21:15:02.300Z,5.5
2022-11-30T21:17:05.634Z,5.5
2022-11-30T21:31:07.784Z,5.5
2022-11-30T21:33:07.580Z,5.5
2022-11-30T21:35:07.408Z,5.5
2022-11-30T21:36:09.087Z,5.4
2022-11-30T21:38:08.937Z,5.4
2022-11-30T21:40:08.733Z,5.4
2022-11-30T21:42:08.585Z,5.5
2022-11-30T21:44:11.914Z,5.5
2022-11-30T21:46:11.832Z,5.4
2022-11-30T21:50:11.424Z,5.5
2022-11-30T21:52:11.249Z,5.5
2022-11-30T21:54:11.112Z,5.5
2022-11-30T21:56:10.856Z,5.4
2022-11-30T21:58:14.169Z,5.5
2022-11-30T22:00:14.007Z,5.5
2022-11-30T22:02:13.841Z,5.5
2022-11-30T22:06:13.539Z,5.5
2022-11-30T22:08:13.357Z,5.5
2022-11-30T22:10:13.168Z,5.4
2022-11-30T22:12:16.426Z,5.4
2022-11-30T22:14:16.182Z,5.5
2022-11-30T22:16:16.120Z,5.4
2022-11-30T22:18:15.853Z,5.4
2022-11-30T22:20:15.688Z,5.4
2022-11-30T22:22:15.419Z,5.5
2022-11-30T22:24:15.246Z,5.4
2022-11-30T22:26:18.588Z,5.5
2022-11-30T22:28:18.431Z,5.4
2022-11-30T22:30:18.244Z,5.4
2022-11-30T22:33:19.772Z,5.4
2022-11-30T22:35:19.636Z,5.4
2022-11-30T22:37:19.427Z,5.4
2022-11-30T22:39:22.700Z,5.4
2022-11-30T22:43:22.337Z,5.4
2022-11-30T22:45:22.216Z,5.4
2022-11-30T22:47:22.031Z,5.4
2022-11-30T22:49:22.195Z,5.4
2022-11-30T22:51:21.713Z,5.4
2022-11-30T22:53:25.030Z,5.3
2022-11-30T22:55:24.962Z,5.3
2022-11-30T22:57:24.740Z,5.4
2022-11-30T22:59:24.584Z,5.4
2022-11-30T23:01:24.400Z,5.3
2022-11-30T23:03:24.221Z,5.3
2022-11-30T23:05:23.888Z,5.4
2022-11-30T23:07:31.847Z,5.3
2022-11-30T23:09:27.089Z,5.4
2022-11-30T23:11:26.906Z,5.3
2022-11-30T23:13:26.712Z,5.3
2022-11-30T23:15:26.578Z,5.3
2022-11-30T23:17:26.431Z,5.3
2022-11-30T23:19:26.287Z,5.3
2022-11-30T23:21:30.273Z,5.3
2022-11-30T23:23:29.367Z,5.3
2022-11-30T23:25:29.201Z,5.3
2022-11-30T23:26:30.860Z,5.3
2022-11-30T23:28:30.723Z,5.3
2022-11-30T23:30:30.557Z,5.3
2022-11-30T23:32:30.413Z,5.3
2022-11-30T23:34:33.766Z,5.2
2022-11-30T23:36:33.610Z,5.2
2022-11-30T23:38:33.429Z,5.2
2022-11-30T23:40:33.271Z,5.2
2022-11-30T23:42:33.117Z,5.2
2022-11-30T23:44:32.985Z,5.2
2022-11-30T23:46:32.884Z,5.2
2022-11-30T23:52:35.876Z,5.2
2022-11-30T23:54:35.691Z,5.2
2022-11-30T23:58:35.314Z,5.2
